sensor_id;sensor_type;location;lat;lon;timestamp;P1;durP1;ratioP1;P2;durP2;ratioP2
32295;SDS011;18781;51.550;5.418;2023-03-04T00:00:56;24.33;;;3.80;;
32295;SDS011;18781;51.550;5.418;2023-03-04T00:03:21;21.90;;;3.45;;
32295;SDS011;18781;51.550;5.418;2023-03-04T00:05:47;22.13;;;3.67;;
32295;SDS011;18781;51.550;5.418;2023-03-04T00:08:13;20.88;;;3.53;;
32295;SDS011;18781;51.550;5.418;2023-03-04T00:10:38;31.73;;;5.10;;
32295;SDS011;18781;51.550;5.418;2023-03-04T00:13:04;27.55;;;3.70;;
32295;SDS011;18781;51.550;5.418;2023-03-04T00:15:29;23.55;;;3.40;;
32295;SDS011;18781;51.550;5.418;2023-03-04T00:17:55;28.02;;;4.15;;
32295;SDS011;18781;51.550;5.418;2023-03-04T00:20:21;27.65;;;3.95;;
32295;SDS011;18781;51.550;5.418;2023-03-04T00:22:46;22.70;;;3.83;;
32295;SDS011;18781;51.550;5.418;2023-03-04T00:25:12;32.65;;;3.80;;
32295;SDS011;18781;51.550;5.418;2023-03-04T00:27:37;22.73;;;3.42;;
32295;SDS011;18781;51.550;5.418;2023-03-04T00:30:04;27.77;;;3.88;;
32295;SDS011;18781;51.550;5.418;2023-03-04T00:32:30;24.83;;;3.72;;
32295;SDS011;18781;51.550;5.418;2023-03-04T00:34:56;29.30;;;3.70;;
32295;SDS011;18781;51.550;5.418;2023-03-04T00:37:21;27.42;;;3.92;;
32295;SDS011;18781;51.550;5.418;2023-03-04T00:39:47;27.38;;;3.35;;
32295;SDS011;18781;51.550;5.418;2023-03-04T00:42:12;21.42;;;3.40;;
32295;SDS011;18781;51.550;5.418;2023-03-04T00:44:38;30.75;;;4.20;;
32295;SDS011;18781;51.550;5.418;2023-03-04T00:47:03;31.20;;;4.53;;
32295;SDS011;18781;51.550;5.418;2023-03-04T00:49:29;26.20;;;4.30;;
32295;SDS011;18781;51.550;5.418;2023-03-04T00:51:55;30.83;;;3.60;;
32295;SDS011;18781;51.550;5.418;2023-03-04T00:54:20;30.10;;;4.07;;
32295;SDS011;18781;51.550;5.418;2023-03-04T00:56:46;26.40;;;4.30;;
32295;SDS011;18781;51.550;5.418;2023-03-04T00:59:11;19.88;;;3.58;;
32295;SDS011;18781;51.550;5.418;2023-03-04T01:01:37;23.98;;;3.75;;
32295;SDS011;18781;51.550;5.418;2023-03-04T01:04:03;32.67;;;3.95;;
32295;SDS011;18781;51.550;5.418;2023-03-04T01:06:28;27.05;;;4.05;;
32295;SDS011;18781;51.550;5.418;2023-03-04T01:08:54;25.73;;;3.38;;
32295;SDS011;18781;51.550;5.418;2023-03-04T01:11:20;23.42;;;4.15;;
32295;SDS011;18781;51.550;5.418;2023-03-04T01:13:45;25.60;;;4.30;;
32295;SDS011;18781;51.550;5.418;2023-03-04T01:16:11;25.10;;;4.40;;
32295;SDS011;18781;51.550;5.418;2023-03-04T01:18:37;24.77;;;3.83;;
32295;SDS011;18781;51.550;5.418;2023-03-04T01:21:03;22.55;;;3.50;;
32295;SDS011;18781;51.550;5.418;2023-03-04T01:23:29;17.88;;;3.17;;
32295;SDS011;18781;51.550;5.418;2023-03-04T01:25:54;31.45;;;3.47;;
32295;SDS011;18781;51.550;5.418;2023-03-04T01:28:20;25.73;;;3.08;;
32295;SDS011;18781;51.550;5.418;2023-03-04T01:30:45;27.45;;;3.53;;
32295;SDS011;18781;51.550;5.418;2023-03-04T01:33:11;26.70;;;2.95;;
32295;SDS011;18781;51.550;5.418;2023-03-04T01:35:37;24.30;;;3.88;;
32295;SDS011;18781;51.550;5.418;2023-03-04T01:38:02;28.20;;;3.50;;
32295;SDS011;18781;51.550;5.418;2023-03-04T01:40:29;22.33;;;3.20;;
32295;SDS011;18781;51.550;5.418;2023-03-04T01:42:55;24.98;;;2.97;;
32295;SDS011;18781;51.550;5.418;2023-03-04T01:45:20;28.67;;;3.30;;
32295;SDS011;18781;51.550;5.418;2023-03-04T01:47:47;36.40;;;3.45;;
32295;SDS011;18781;51.550;5.418;2023-03-04T01:50:19;18.60;;;3.20;;
32295;SDS011;18781;51.550;5.418;2023-03-04T01:52:53;18.38;;;3.28;;
32295;SDS011;18781;51.550;5.418;2023-03-04T01:55:19;28.65;;;3.13;;
32295;SDS011;18781;51.550;5.418;2023-03-04T01:57:46;16.73;;;2.78;;
32295;SDS011;18781;51.550;5.418;2023-03-04T02:00:16;32.33;;;3.72;;
32295;SDS011;18781;51.550;5.418;2023-03-04T02:02:49;29.55;;;3.50;;
32295;SDS011;18781;51.550;5.418;2023-03-04T02:05:17;24.38;;;3.05;;
32295;SDS011;18781;51.550;5.418;2023-03-04T02:07:43;29.38;;;3.30;;
32295;SDS011;18781;51.550;5.418;2023-03-04T02:10:10;24.48;;;3.03;;
32295;SDS011;18781;51.550;5.418;2023-03-04T02:12:37;27.95;;;3.03;;
32295;SDS011;18781;51.550;5.418;2023-03-04T02:15:03;28.60;;;3.38;;
32295;SDS011;18781;51.550;5.418;2023-03-04T02:17:30;18.85;;;3.40;;
32295;SDS011;18781;51.550;5.418;2023-03-04T02:23:30;23.70;;;2.92;;
32295;SDS011;18781;51.550;5.418;2023-03-04T02:25:38;19.25;;;3.55;;
32295;SDS011;18781;51.550;5.418;2023-03-04T02:28:09;21.73;;;3.38;;
32295;SDS011;18781;51.550;5.418;2023-03-04T02:30:35;17.10;;;2.38;;
32295;SDS011;18781;51.550;5.418;2023-03-04T02:33:00;18.77;;;2.75;;
32295;SDS011;18781;51.550;5.418;2023-03-04T02:35:26;22.90;;;2.65;;
32295;SDS011;18781;51.550;5.418;2023-03-04T02:37:52;23.42;;;3.08;;
32295;SDS011;18781;51.550;5.418;2023-03-04T02:40:26;22.35;;;2.53;;
32295;SDS011;18781;51.550;5.418;2023-03-04T02:42:55;22.15;;;2.92;;
32295;SDS011;18781;51.550;5.418;2023-03-04T02:45:36;19.92;;;2.92;;
32295;SDS011;18781;51.550;5.418;2023-03-04T02:48:02;25.45;;;3.60;;
32295;SDS011;18781;51.550;5.418;2023-03-04T02:50:29;17.65;;;2.67;;
32295;SDS011;18781;51.550;5.418;2023-03-04T02:52:57;26.08;;;3.05;;
32295;SDS011;18781;51.550;5.418;2023-03-04T02:55:23;27.42;;;3.40;;
32295;SDS011;18781;51.550;5.418;2023-03-04T02:57:49;20.73;;;2.60;;
32295;SDS011;18781;51.550;5.418;2023-03-04T03:00:14;25.33;;;2.90;;
32295;SDS011;18781;51.550;5.418;2023-03-04T03:02:40;12.40;;;2.55;;
32295;SDS011;18781;51.550;5.418;2023-03-04T03:05:06;23.08;;;2.75;;
32295;SDS011;18781;51.550;5.418;2023-03-04T03:07:32;23.00;;;2.80;;
32295;SDS011;18781;51.550;5.418;2023-03-04T03:09:59;16.67;;;2.38;;
32295;SDS011;18781;51.550;5.418;2023-03-04T03:12:24;23.83;;;2.65;;
32295;SDS011;18781;51.550;5.418;2023-03-04T03:14:50;16.83;;;2.30;;
32295;SDS011;18781;51.550;5.418;2023-03-04T03:17:16;24.83;;;3.13;;
32295;SDS011;18781;51.550;5.418;2023-03-04T03:19:41;14.35;;;2.45;;
32295;SDS011;18781;51.550;5.418;2023-03-04T03:22:07;20.67;;;4.60;;
32295;SDS011;18781;51.550;5.418;2023-03-04T03:24:33;15.40;;;4.03;;
32295;SDS011;18781;51.550;5.418;2023-03-04T03:26:58;15.82;;;3.17;;
32295;SDS011;18781;51.550;5.418;2023-03-04T03:29:24;20.52;;;3.70;;
32295;SDS011;18781;51.550;5.418;2023-03-04T03:31:49;22.17;;;2.60;;
32295;SDS011;18781;51.550;5.418;2023-03-04T03:34:15;20.00;;;3.05;;
32295;SDS011;18781;51.550;5.418;2023-03-04T03:36:40;16.35;;;3.42;;
32295;SDS011;18781;51.550;5.418;2023-03-04T03:39:06;23.23;;;3.60;;
32295;SDS011;18781;51.550;5.418;2023-03-04T03:41:32;14.25;;;2.47;;
32295;SDS011;18781;51.550;5.418;2023-03-04T03:43:57;14.65;;;2.35;;
32295;SDS011;18781;51.550;5.418;2023-03-04T03:46:23;14.23;;;2.67;;
32295;SDS011;18781;51.550;5.418;2023-03-04T03:48:48;22.65;;;3.42;;
32295;SDS011;18781;51.550;5.418;2023-03-04T03:51:14;28.30;;;2.90;;
32295;SDS011;18781;51.550;5.418;2023-03-04T03:53:40;25.08;;;3.15;;
32295;SDS011;18781;51.550;5.418;2023-03-04T03:56:05;24.60;;;3.30;;
32295;SDS011;18781;51.550;5.418;2023-03-04T03:58:31;21.98;;;2.75;;
32295;SDS011;18781;51.550;5.418;2023-03-04T04:00:57;20.52;;;2.55;;
32295;SDS011;18781;51.550;5.418;2023-03-04T04:03:22;13.47;;;2.50;;
32295;SDS011;18781;51.550;5.418;2023-03-04T04:05:48;16.88;;;2.40;;
32295;SDS011;18781;51.550;5.418;2023-03-04T04:08:14;21.25;;;2.45;;
32295;SDS011;18781;51.550;5.418;2023-03-04T04:10:40;13.65;;;2.78;;
32295;SDS011;18781;51.550;5.418;2023-03-04T04:13:06;17.27;;;3.17;;
32295;SDS011;18781;51.550;5.418;2023-03-04T04:15:32;23.58;;;2.95;;
32295;SDS011;18781;51.550;5.418;2023-03-04T04:17:58;25.20;;;2.40;;
32295;SDS011;18781;51.550;5.418;2023-03-04T04:20:23;18.23;;;2.33;;
32295;SDS011;18781;51.550;5.418;2023-03-04T04:22:49;17.90;;;2.75;;
32295;SDS011;18781;51.550;5.418;2023-03-04T04:25:15;27.05;;;2.83;;
32295;SDS011;18781;51.550;5.418;2023-03-04T04:27:41;16.10;;;2.33;;
32295;SDS011;18781;51.550;5.418;2023-03-04T04:30:07;21.25;;;2.42;;
32295;SDS011;18781;51.550;5.418;2023-03-04T04:32:33;22.60;;;3.20;;
32295;SDS011;18781;51.550;5.418;2023-03-04T04:34:59;31.20;;;2.78;;
32295;SDS011;18781;51.550;5.418;2023-03-04T04:37:24;12.95;;;2.30;;
32295;SDS011;18781;51.550;5.418;2023-03-04T04:39:50;25.77;;;2.83;;
32295;SDS011;18781;51.550;5.418;2023-03-04T04:42:15;15.45;;;2.20;;
32295;SDS011;18781;51.550;5.418;2023-03-04T04:44:42;15.30;;;2.40;;
32295;SDS011;18781;51.550;5.418;2023-03-04T04:47:08;17.88;;;2.88;;
32295;SDS011;18781;51.550;5.418;2023-03-04T04:49:34;21.40;;;2.50;;
32295;SDS011;18781;51.550;5.418;2023-03-04T04:51:59;17.88;;;2.47;;
32295;SDS011;18781;51.550;5.418;2023-03-04T04:54:25;26.77;;;2.30;;
32295;SDS011;18781;51.550;5.418;2023-03-04T04:56:51;17.20;;;2.70;;
32295;SDS011;18781;51.550;5.418;2023-03-04T04:59:17;23.80;;;2.38;;
32295;SDS011;18781;51.550;5.418;2023-03-04T05:01:42;15.63;;;2.20;;
32295;SDS011;18781;51.550;5.418;2023-03-04T05:04:08;19.17;;;2.42;;
32295;SDS011;18781;51.550;5.418;2023-03-04T05:06:33;19.90;;;2.72;;
32295;SDS011;18781;51.550;5.418;2023-03-04T05:08:59;15.30;;;2.72;;
32295;SDS011;18781;51.550;5.418;2023-03-04T05:11:26;13.43;;;2.40;;
32295;SDS011;18781;51.550;5.418;2023-03-04T05:13:51;17.27;;;2.22;;
32295;SDS011;18781;51.550;5.418;2023-03-04T05:16:17;25.02;;;3.08;;
32295;SDS011;18781;51.550;5.418;2023-03-04T05:18:43;25.70;;;3.28;;
32295;SDS011;18781;51.550;5.418;2023-03-04T05:21:09;21.90;;;2.25;;
32295;SDS011;18781;51.550;5.418;2023-03-04T05:23:36;20.85;;;2.45;;
32295;SDS011;18781;51.550;5.418;2023-03-04T05:26:03;16.83;;;2.47;;
32295;SDS011;18781;51.550;5.418;2023-03-04T05:28:30;17.77;;;2.10;;
32295;SDS011;18781;51.550;5.418;2023-03-04T05:30:56;14.48;;;2.65;;
32295;SDS011;18781;51.550;5.418;2023-03-04T05:33:22;15.13;;;2.35;;
32295;SDS011;18781;51.550;5.418;2023-03-04T05:35:47;19.83;;;2.60;;
32295;SDS011;18781;51.550;5.418;2023-03-04T05:38:14;22.58;;;2.55;;
32295;SDS011;18781;51.550;5.418;2023-03-04T05:40:41;18.48;;;2.28;;
32295;SDS011;18781;51.550;5.418;2023-03-04T05:43:07;11.93;;;2.60;;
32295;SDS011;18781;51.550;5.418;2023-03-04T05:45:33;22.65;;;3.42;;
32295;SDS011;18781;51.550;5.418;2023-03-04T05:47:59;20.27;;;2.92;;
32295;SDS011;18781;51.550;5.418;2023-03-04T05:50:26;25.77;;;3.17;;
32295;SDS011;18781;51.550;5.418;2023-03-04T05:52:52;18.80;;;2.60;;
32295;SDS011;18781;51.550;5.418;2023-03-04T05:55:17;18.05;;;2.20;;
32295;SDS011;18781;51.550;5.418;2023-03-04T05:57:43;19.65;;;2.47;;
32295;SDS011;18781;51.550;5.418;2023-03-04T06:00:09;12.63;;;2.53;;
32295;SDS011;18781;51.550;5.418;2023-03-04T06:02:37;14.02;;;2.55;;
32295;SDS011;18781;51.550;5.418;2023-03-04T06:05:03;18.65;;;2.30;;
32295;SDS011;18781;51.550;5.418;2023-03-04T06:07:30;24.05;;;2.75;;
32295;SDS011;18781;51.550;5.418;2023-03-04T06:09:55;16.02;;;2.17;;
32295;SDS011;18781;51.550;5.418;2023-03-04T06:12:21;16.35;;;2.35;;
32295;SDS011;18781;51.550;5.418;2023-03-04T06:14:47;15.77;;;2.42;;
32295;SDS011;18781;51.550;5.418;2023-03-04T06:17:12;23.27;;;2.85;;
32295;SDS011;18781;51.550;5.418;2023-03-04T06:19:38;14.02;;;2.63;;
32295;SDS011;18781;51.550;5.418;2023-03-04T06:22:05;16.33;;;1.80;;
32295;SDS011;18781;51.550;5.418;2023-03-04T06:24:32;16.90;;;2.40;;
32295;SDS011;18781;51.550;5.418;2023-03-04T06:26:58;23.17;;;2.50;;
32295;SDS011;18781;51.550;5.418;2023-03-04T06:29:24;16.38;;;2.60;;
32295;SDS011;18781;51.550;5.418;2023-03-04T06:31:49;19.40;;;2.30;;
32295;SDS011;18781;51.550;5.418;2023-03-04T06:34:15;18.23;;;2.63;;
32295;SDS011;18781;51.550;5.418;2023-03-04T06:36:40;13.68;;;1.92;;
32295;SDS011;18781;51.550;5.418;2023-03-04T06:39:06;10.02;;;2.20;;
32295;SDS011;18781;51.550;5.418;2023-03-04T06:41:32;13.38;;;2.17;;
32295;SDS011;18781;51.550;5.418;2023-03-04T06:43:58;14.23;;;2.30;;
32295;SDS011;18781;51.550;5.418;2023-03-04T06:46:24;14.68;;;1.88;;
32295;SDS011;18781;51.550;5.418;2023-03-04T06:48:50;17.60;;;2.17;;
32295;SDS011;18781;51.550;5.418;2023-03-04T06:51:16;13.88;;;1.88;;
32295;SDS011;18781;51.550;5.418;2023-03-04T06:53:42;12.45;;;2.28;;
32295;SDS011;18781;51.550;5.418;2023-03-04T06:56:08;10.98;;;1.90;;
32295;SDS011;18781;51.550;5.418;2023-03-04T06:58:35;12.82;;;2.53;;
32295;SDS011;18781;51.550;5.418;2023-03-04T07:03:47;8.43;;;1.88;;
32295;SDS011;18781;51.550;5.418;2023-03-04T07:06:15;6.80;;;1.77;;
32295;SDS011;18781;51.550;5.418;2023-03-04T07:08:42;11.93;;;2.80;;
32295;SDS011;18781;51.550;5.418;2023-03-04T07:11:08;11.85;;;2.22;;
32295;SDS011;18781;51.550;5.418;2023-03-04T07:13:34;9.48;;;1.73;;
32295;SDS011;18781;51.550;5.418;2023-03-04T07:16:03;15.20;;;2.20;;
32295;SDS011;18781;51.550;5.418;2023-03-04T07:18:29;12.52;;;2.17;;
32295;SDS011;18781;51.550;5.418;2023-03-04T07:20:55;10.90;;;1.95;;
32295;SDS011;18781;51.550;5.418;2023-03-04T07:23:20;11.95;;;2.10;;
32295;SDS011;18781;51.550;5.418;2023-03-04T07:25:47;10.57;;;1.85;;
32295;SDS011;18781;51.550;5.418;2023-03-04T07:28:13;10.13;;;2.03;;
32295;SDS011;18781;51.550;5.418;2023-03-04T07:30:38;15.88;;;2.28;;
32295;SDS011;18781;51.550;5.418;2023-03-04T07:33:04;15.38;;;2.65;;
32295;SDS011;18781;51.550;5.418;2023-03-04T07:35:30;10.60;;;2.13;;
32295;SDS011;18781;51.550;5.418;2023-03-04T07:37:55;14.65;;;2.63;;
32295;SDS011;18781;51.550;5.418;2023-03-04T07:40:21;8.48;;;1.70;;
32295;SDS011;18781;51.550;5.418;2023-03-04T07:42:50;14.45;;;2.25;;
32295;SDS011;18781;51.550;5.418;2023-03-04T07:45:17;13.85;;;2.30;;
32295;SDS011;18781;51.550;5.418;2023-03-04T07:47:43;12.15;;;2.30;;
32295;SDS011;18781;51.550;5.418;2023-03-04T07:50:09;17.45;;;2.50;;
32295;SDS011;18781;51.550;5.418;2023-03-04T07:52:41;11.70;;;2.97;;
32295;SDS011;18781;51.550;5.418;2023-03-04T07:55:10;12.80;;;2.40;;
32295;SDS011;18781;51.550;5.418;2023-03-04T07:57:41;9.90;;;2.30;;
32295;SDS011;18781;51.550;5.418;2023-03-04T08:00:08;13.30;;;2.97;;
32295;SDS011;18781;51.550;5.418;2023-03-04T08:02:35;20.95;;;2.78;;
32295;SDS011;18781;51.550;5.418;2023-03-04T08:05:00;11.13;;;2.90;;
32295;SDS011;18781;51.550;5.418;2023-03-04T08:07:26;15.93;;;2.50;;
32295;SDS011;18781;51.550;5.418;2023-03-04T08:09:52;12.68;;;2.65;;
32295;SDS011;18781;51.550;5.418;2023-03-04T08:12:17;17.15;;;2.92;;
32295;SDS011;18781;51.550;5.418;2023-03-04T08:14:43;14.77;;;3.30;;
32295;SDS011;18781;51.550;5.418;2023-03-04T08:17:09;10.30;;;2.40;;
32295;SDS011;18781;51.550;5.418;2023-03-04T08:19:35;17.05;;;3.10;;
32295;SDS011;18781;51.550;5.418;2023-03-04T08:22:01;15.77;;;2.58;;
32295;SDS011;18781;51.550;5.418;2023-03-04T08:24:26;10.30;;;2.55;;
32295;SDS011;18781;51.550;5.418;2023-03-04T08:26:52;9.73;;;2.63;;
32295;SDS011;18781;51.550;5.418;2023-03-04T08:29:19;17.23;;;2.85;;
32295;SDS011;18781;51.550;5.418;2023-03-04T08:31:46;17.23;;;4.00;;
32295;SDS011;18781;51.550;5.418;2023-03-04T08:34:15;14.63;;;3.17;;
32295;SDS011;18781;51.550;5.418;2023-03-04T08:36:41;13.50;;;2.95;;
32295;SDS011;18781;51.550;5.418;2023-03-04T08:39:07;14.98;;;2.60;;
32295;SDS011;18781;51.550;5.418;2023-03-04T08:41:35;12.80;;;2.30;;
32295;SDS011;18781;51.550;5.418;2023-03-04T08:44:00;13.25;;;3.50;;
32295;SDS011;18781;51.550;5.418;2023-03-04T08:46:26;16.92;;;3.60;;
32295;SDS011;18781;51.550;5.418;2023-03-04T08:48:52;23.63;;;2.90;;
32295;SDS011;18781;51.550;5.418;2023-03-04T08:51:17;22.98;;;4.57;;
32295;SDS011;18781;51.550;5.418;2023-03-04T08:53:43;13.13;;;2.60;;
32295;SDS011;18781;51.550;5.418;2023-03-04T08:56:10;18.00;;;3.47;;
32295;SDS011;18781;51.550;5.418;2023-03-04T08:58:36;16.33;;;3.40;;
32295;SDS011;18781;51.550;5.418;2023-03-04T09:01:02;11.63;;;2.70;;
32295;SDS011;18781;51.550;5.418;2023-03-04T09:03:28;19.55;;;3.00;;
32295;SDS011;18781;51.550;5.418;2023-03-04T09:05:54;14.70;;;3.42;;
32295;SDS011;18781;51.550;5.418;2023-03-04T09:08:20;12.27;;;2.45;;
32295;SDS011;18781;51.550;5.418;2023-03-04T09:10:46;12.27;;;2.40;;
32295;SDS011;18781;51.550;5.418;2023-03-04T09:13:12;12.35;;;2.85;;
32295;SDS011;18781;51.550;5.418;2023-03-04T09:15:44;14.63;;;3.35;;
32295;SDS011;18781;51.550;5.418;2023-03-04T09:18:11;20.17;;;3.78;;
32295;SDS011;18781;51.550;5.418;2023-03-04T09:20:37;14.00;;;3.60;;
32295;SDS011;18781;51.550;5.418;2023-03-04T09:23:03;20.05;;;4.80;;
32295;SDS011;18781;51.550;5.418;2023-03-04T09:25:28;16.85;;;5.07;;
32295;SDS011;18781;51.550;5.418;2023-03-04T09:27:54;17.48;;;4.97;;
32295;SDS011;18781;51.550;5.418;2023-03-04T09:30:20;16.33;;;5.20;;
32295;SDS011;18781;51.550;5.418;2023-03-04T09:32:45;12.05;;;4.57;;
32295;SDS011;18781;51.550;5.418;2023-03-04T09:35:11;15.77;;;3.88;;
32295;SDS011;18781;51.550;5.418;2023-03-04T09:37:37;12.32;;;4.03;;
32295;SDS011;18781;51.550;5.418;2023-03-04T09:40:03;11.23;;;3.33;;
32295;SDS011;18781;51.550;5.418;2023-03-04T09:42:37;18.38;;;4.40;;
32295;SDS011;18781;51.550;5.418;2023-03-04T09:45:12;14.25;;;4.10;;
32295;SDS011;18781;51.550;5.418;2023-03-04T09:47:42;11.45;;;3.00;;
32295;SDS011;18781;51.550;5.418;2023-03-04T09:50:09;18.95;;;4.13;;
32295;SDS011;18781;51.550;5.418;2023-03-04T09:55:44;11.38;;;3.70;;
32295;SDS011;18781;51.550;5.418;2023-03-04T10:01:30;7.47;;;2.30;;
32295;SDS011;18781;51.550;5.418;2023-03-04T10:04:47;6.32;;;2.10;;
32295;SDS011;18781;51.550;5.418;2023-03-04T10:06:52;10.45;;;2.53;;
32295;SDS011;18781;51.550;5.418;2023-03-04T10:09:25;6.30;;;2.00;;
32295;SDS011;18781;51.550;5.418;2023-03-04T10:12:11;6.50;;;2.10;;
32295;SDS011;18781;51.550;5.418;2023-03-04T10:14:47;8.30;;;2.10;;
32295;SDS011;18781;51.550;5.418;2023-03-04T10:17:23;9.27;;;2.55;;
32295;SDS011;18781;51.550;5.418;2023-03-04T10:20:23;6.05;;;2.38;;
32295;SDS011;18781;51.550;5.418;2023-03-04T10:23:01;9.15;;;2.33;;
32295;SDS011;18781;51.550;5.418;2023-03-04T10:25:35;12.55;;;2.58;;
32295;SDS011;18781;51.550;5.418;2023-03-04T10:30:52;5.18;;;2.10;;
32295;SDS011;18781;51.550;5.418;2023-03-04T10:33:33;8.63;;;2.05;;
32295;SDS011;18781;51.550;5.418;2023-03-04T10:38:44;7.15;;;2.25;;
32295;SDS011;18781;51.550;5.418;2023-03-04T10:41:14;11.50;;;2.50;;
32295;SDS011;18781;51.550;5.418;2023-03-04T10:43:42;31.55;;;14.20;;
32295;SDS011;18781;51.550;5.418;2023-03-04T10:46:13;15.10;;;2.63;;
32295;SDS011;18781;51.550;5.418;2023-03-04T10:48:41;13.40;;;2.63;;
32295;SDS011;18781;51.550;5.418;2023-03-04T10:51:30;10.73;;;2.25;;
32295;SDS011;18781;51.550;5.418;2023-03-04T10:54:07;6.50;;;1.80;;
32295;SDS011;18781;51.550;5.418;2023-03-04T10:56:41;7.63;;;1.90;;
32295;SDS011;18781;51.550;5.418;2023-03-04T11:04:40;7.68;;;2.00;;
32295;SDS011;18781;51.550;5.418;2023-03-04T11:07:09;4.85;;;1.55;;
32295;SDS011;18781;51.550;5.418;2023-03-04T11:09:35;7.18;;;1.70;;
32295;SDS011;18781;51.550;5.418;2023-03-04T11:12:02;12.68;;;2.17;;
32295;SDS011;18781;51.550;5.418;2023-03-04T11:14:35;7.63;;;2.00;;
32295;SDS011;18781;51.550;5.418;2023-03-04T11:17:19;11.65;;;2.05;;
32295;SDS011;18781;51.550;5.418;2023-03-04T11:19:49;13.77;;;2.00;;
32295;SDS011;18781;51.550;5.418;2023-03-04T11:22:21;6.75;;;2.20;;
32295;SDS011;18781;51.550;5.418;2023-03-04T11:24:53;6.50;;;2.50;;
32295;SDS011;18781;51.550;5.418;2023-03-04T11:27:28;9.15;;;2.53;;
32295;SDS011;18781;51.550;5.418;2023-03-04T11:30:23;6.40;;;2.42;;
32295;SDS011;18781;51.550;5.418;2023-03-04T11:33:20;2.85;;;2.10;;
32295;SDS011;18781;51.550;5.418;2023-03-04T11:36:11;10.52;;;2.65;;
32295;SDS011;18781;51.550;5.418;2023-03-04T11:38:57;10.35;;;2.80;;
32295;SDS011;18781;51.550;5.418;2023-03-04T11:41:37;9.02;;;2.30;;
32295;SDS011;18781;51.550;5.418;2023-03-04T11:44:05;4.20;;;2.28;;
32295;SDS011;18781;51.550;5.418;2023-03-04T11:52:30;3.65;;;2.08;;
32295;SDS011;18781;51.550;5.418;2023-03-04T12:06:02;3.65;;;2.13;;
32295;SDS011;18781;51.550;5.418;2023-03-04T12:14:15;4.65;;;1.88;;
32295;SDS011;18781;51.550;5.418;2023-03-04T12:22:11;6.00;;;2.13;;
32295;SDS011;18781;51.550;5.418;2023-03-04T12:35:52;7.60;;;2.13;;
32295;SDS011;18781;51.550;5.418;2023-03-04T12:38:44;5.03;;;2.40;;
32295;SDS011;18781;51.550;5.418;2023-03-04T12:44:34;7.28;;;3.15;;
32295;SDS011;18781;51.550;5.418;2023-03-04T12:55:03;5.57;;;2.78;;
32295;SDS011;18781;51.550;5.418;2023-03-04T12:57:34;7.45;;;2.47;;
32295;SDS011;18781;51.550;5.418;2023-03-04T13:03:01;8.75;;;2.60;;
32295;SDS011;18781;51.550;5.418;2023-03-04T13:05:35;5.68;;;2.30;;
32295;SDS011;18781;51.550;5.418;2023-03-04T13:10:40;4.90;;;2.70;;
32295;SDS011;18781;51.550;5.418;2023-03-04T13:13:31;6.57;;;2.80;;
32295;SDS011;18781;51.550;5.418;2023-03-04T13:18:43;5.95;;;2.20;;
32295;SDS011;18781;51.550;5.418;2023-03-04T13:23:37;7.70;;;3.30;;
32295;SDS011;18781;51.550;5.418;2023-03-04T13:29:08;7.95;;;3.20;;
32295;SDS011;18781;51.550;5.418;2023-03-04T13:32:01;11.25;;;4.20;;
32295;SDS011;18781;51.550;5.418;2023-03-04T13:37:31;11.65;;;3.33;;
32295;SDS011;18781;51.550;5.418;2023-03-04T13:42:44;7.75;;;2.10;;
32295;SDS011;18781;51.550;5.418;2023-03-04T13:45:30;8.82;;;2.58;;
32295;SDS011;18781;51.550;5.418;2023-03-04T13:47:57;4.60;;;2.85;;
32295;SDS011;18781;51.550;5.418;2023-03-04T13:50:28;7.72;;;2.72;;
32295;SDS011;18781;51.550;5.418;2023-03-04T13:57:10;6.95;;;2.50;;
32295;SDS011;18781;51.550;5.418;2023-03-04T13:59:43;14.25;;;4.40;;
32295;SDS011;18781;51.550;5.418;2023-03-04T14:02:14;12.70;;;4.97;;
32295;SDS011;18781;51.550;5.418;2023-03-04T14:04:55;14.45;;;6.75;;
32295;SDS011;18781;51.550;5.418;2023-03-04T14:10:04;4.82;;;2.22;;
32295;SDS011;18781;51.550;5.418;2023-03-04T14:12:33;3.15;;;2.10;;
32295;SDS011;18781;51.550;5.418;2023-03-04T14:15:14;6.50;;;1.83;;
32295;SDS011;18781;51.550;5.418;2023-03-04T14:17:53;3.83;;;2.20;;
32295;SDS011;18781;51.550;5.418;2023-03-04T14:20:34;3.75;;;2.10;;
32295;SDS011;18781;51.550;5.418;2023-03-04T14:23:02;3.75;;;1.75;;
32295;SDS011;18781;51.550;5.418;2023-03-04T14:25:46;7.70;;;3.22;;
32295;SDS011;18781;51.550;5.418;2023-03-04T14:28:12;5.13;;;1.77;;
32295;SDS011;18781;51.550;5.418;2023-03-04T14:30:40;7.10;;;2.08;;
32295;SDS011;18781;51.550;5.418;2023-03-04T14:33:11;7.53;;;1.85;;
32295;SDS011;18781;51.550;5.418;2023-03-04T14:35:53;5.47;;;1.70;;
32295;SDS011;18781;51.550;5.418;2023-03-04T14:38:25;4.65;;;1.80;;
32295;SDS011;18781;51.550;5.418;2023-03-04T14:41:01;9.85;;;1.70;;
32295;SDS011;18781;51.550;5.418;2023-03-04T14:43:42;9.60;;;1.70;;
32295;SDS011;18781;51.550;5.418;2023-03-04T14:46:28;7.95;;;1.63;;
32295;SDS011;18781;51.550;5.418;2023-03-04T14:48:59;5.65;;;1.50;;
32295;SDS011;18781;51.550;5.418;2023-03-04T14:56:50;8.98;;;3.47;;
32295;SDS011;18781;51.550;5.418;2023-03-04T14:59:15;8.95;;;1.77;;
32295;SDS011;18781;51.550;5.418;2023-03-04T15:01:41;12.48;;;1.95;;
32295;SDS011;18781;51.550;5.418;2023-03-04T15:04:09;7.60;;;1.90;;
32295;SDS011;18781;51.550;5.418;2023-03-04T15:06:38;9.47;;;1.90;;
32295;SDS011;18781;51.550;5.418;2023-03-04T15:09:23;14.93;;;2.65;;
32295;SDS011;18781;51.550;5.418;2023-03-04T15:11:52;9.43;;;2.20;;
32295;SDS011;18781;51.550;5.418;2023-03-04T15:14:46;9.43;;;2.10;;
32295;SDS011;18781;51.550;5.418;2023-03-04T15:19:58;20.98;;;3.15;;
32295;SDS011;18781;51.550;5.418;2023-03-04T15:22:25;17.70;;;3.17;;
32295;SDS011;18781;51.550;5.418;2023-03-04T15:24:51;21.30;;;3.47;;
32295;SDS011;18781;51.550;5.418;2023-03-04T15:27:17;18.88;;;3.15;;
32295;SDS011;18781;51.550;5.418;2023-03-04T15:29:48;20.50;;;3.03;;
32295;SDS011;18781;51.550;5.418;2023-03-04T15:32:14;27.40;;;3.50;;
32295;SDS011;18781;51.550;5.418;2023-03-04T15:34:40;18.27;;;3.30;;
32295;SDS011;18781;51.550;5.418;2023-03-04T15:37:05;24.10;;;3.72;;
32295;SDS011;18781;51.550;5.418;2023-03-04T15:39:38;15.52;;;3.03;;
32295;SDS011;18781;51.550;5.418;2023-03-04T15:42:07;22.77;;;3.30;;
32295;SDS011;18781;51.550;5.418;2023-03-04T15:44:36;21.85;;;4.30;;
32295;SDS011;18781;51.550;5.418;2023-03-04T15:47:01;21.80;;;3.22;;
32295;SDS011;18781;51.550;5.418;2023-03-04T15:49:27;16.75;;;3.00;;
32295;SDS011;18781;51.550;5.418;2023-03-04T15:51:53;14.77;;;2.80;;
32295;SDS011;18781;51.550;5.418;2023-03-04T15:54:26;19.98;;;3.38;;
32295;SDS011;18781;51.550;5.418;2023-03-04T15:56:53;19.23;;;3.80;;
32295;SDS011;18781;51.550;5.418;2023-03-04T15:59:19;21.90;;;3.55;;
32295;SDS011;18781;51.550;5.418;2023-03-04T16:01:45;21.73;;;3.33;;
32295;SDS011;18781;51.550;5.418;2023-03-04T16:04:12;16.88;;;3.03;;
32295;SDS011;18781;51.550;5.418;2023-03-04T16:06:40;23.42;;;2.92;;
32295;SDS011;18781;51.550;5.418;2023-03-04T16:09:12;15.30;;;2.58;;
32295;SDS011;18781;51.550;5.418;2023-03-04T16:11:41;16.55;;;2.83;;
32295;SDS011;18781;51.550;5.418;2023-03-04T16:14:10;8.88;;;2.55;;
32295;SDS011;18781;51.550;5.418;2023-03-04T16:16:38;14.50;;;2.83;;
32295;SDS011;18781;51.550;5.418;2023-03-04T16:19:04;16.70;;;2.67;;
32295;SDS011;18781;51.550;5.418;2023-03-04T16:21:30;20.42;;;2.97;;
32295;SDS011;18781;51.550;5.418;2023-03-04T16:23:55;19.15;;;2.97;;
32295;SDS011;18781;51.550;5.418;2023-03-04T16:26:21;23.38;;;5.65;;
32295;SDS011;18781;51.550;5.418;2023-03-04T16:28:49;26.27;;;7.88;;
32295;SDS011;18781;51.550;5.418;2023-03-04T16:31:15;20.05;;;4.43;;
32295;SDS011;18781;51.550;5.418;2023-03-04T16:33:42;17.27;;;4.25;;